createdAt,value
2018-09-24T00:00:52.125Z,21.10
2018-09-24T00:02:23.398Z,21.31
2018-09-24T00:08:29.793Z,20.98
2018-09-24T00:10:01.266Z,20.80
2018-09-24T00:11:32.840Z,20.66
2018-09-24T00:13:04.421Z,20.43
2018-09-24T00:14:35.988Z,20.06
2018-09-24T00:16:07.563Z,20.03
2018-09-24T00:19:10.710Z,19.80
2018-09-24T00:20:42.384Z,19.80
2018-09-24T00:22:13.858Z,19.94
2018-09-24T00:23:45.432Z,20.03
2018-09-24T00:25:17.007Z,19.92
2018-09-24T00:26:48.579Z,19.98
2018-09-24T00:28:20.152Z,19.78
2018-09-24T00:29:51.727Z,19.63
2018-09-24T00:31:23.304Z,19.56
2018-09-24T00:32:54.874Z,19.65
2018-09-24T00:34:26.447Z,19.66
2018-09-24T00:35:58.020Z,19.66
2018-09-24T00:37:29.595Z,19.54
2018-09-24T00:39:01.583Z,19.62
2018-09-24T00:40:32.744Z,19.55
2018-09-24T00:42:04.313Z,19.54
2018-09-24T00:43:35.888Z,19.47
2018-09-24T00:45:07.460Z,19.21
2018-09-24T00:46:39.034Z,19.08
2018-09-24T00:48:10.606Z,19.02
2018-09-24T00:49:42.180Z,18.99
2018-09-24T00:51:13.752Z,19.00
2018-09-24T00:52:45.327Z,18.98
2018-09-24T00:54:16.898Z,18.94
2018-09-24T00:55:48.472Z,18.92
2018-09-24T00:57:20.147Z,18.98
2018-09-24T00:58:51.619Z,18.87
2018-09-24T01:00:23.191Z,18.85
2018-09-24T01:01:54.764Z,18.78
2018-09-24T01:03:26.337Z,18.70
2018-09-24T01:04:57.909Z,18.70
2018-09-24T01:06:29.483Z,18.70
2018-09-24T01:08:01.077Z,18.70
2018-09-24T01:09:32.929Z,18.60
2018-09-24T01:11:04.200Z,18.65
2018-09-24T01:12:35.773Z,18.58
2018-09-24T01:14:07.345Z,18.51
2018-09-24T01:15:39.119Z,18.51
2018-09-24T01:17:10.493Z,18.45
2018-09-24T01:18:42.064Z,18.52
2018-09-24T01:20:13.639Z,18.47
2018-09-24T01:21:45.209Z,18.39
2018-09-24T01:23:16.781Z,18.32
2018-09-24T01:24:48.353Z,18.27
2018-09-24T01:26:19.925Z,18.29
2018-09-24T01:27:51.499Z,18.27
2018-09-24T01:29:23.074Z,18.27
2018-09-24T01:30:54.847Z,18.27
2018-09-24T01:32:26.216Z,18.21
2018-09-24T01:33:57.988Z,18.18
2018-09-24T01:35:29.361Z,18.21
2018-09-24T01:37:00.933Z,18.27
2018-09-24T01:38:32.505Z,18.21
2018-09-24T01:40:04.378Z,18.14
2018-09-24T01:41:35.650Z,18.12
2018-09-24T01:43:07.222Z,18.17
2018-09-24T01:44:38.795Z,18.12
2018-09-24T01:46:10.367Z,18.07
2018-09-24T01:47:42.146Z,18.10
2018-09-24T01:49:13.511Z,18.11
2018-09-24T01:50:45.088Z,18.02
2018-09-24T01:52:16.756Z,18.08
2018-09-24T01:53:48.230Z,18.07
2018-09-24T01:55:19.800Z,17.97
2018-09-24T01:56:51.374Z,17.95
2018-09-24T01:58:22.946Z,17.99
2018-09-24T01:59:54.519Z,17.95
2018-09-24T02:01:26.090Z,17.75
2018-09-24T02:02:57.661Z,17.81
2018-09-24T02:04:29.233Z,17.77
2018-09-24T02:06:00.806Z,17.75
2018-09-24T02:07:32.377Z,17.84
2018-09-24T02:09:03.949Z,17.78
2018-09-24T02:10:36.172Z,17.77
2018-09-24T02:12:07.094Z,17.74
2018-09-24T02:13:38.665Z,17.63
2018-09-24T02:15:10.250Z,17.58
2018-09-24T02:16:41.810Z,17.64
2018-09-24T02:18:13.381Z,17.66
2018-09-24T02:19:44.954Z,17.72
2018-09-24T02:21:16.539Z,17.68
2018-09-24T02:22:48.097Z,17.70
2018-09-24T02:24:19.669Z,17.63
2018-09-24T02:25:51.241Z,17.68
2018-09-24T02:27:22.817Z,17.54
2018-09-24T02:28:54.491Z,17.59
2018-09-24T02:30:25.968Z,17.56
2018-09-24T02:31:57.529Z,17.59
2018-09-24T02:33:29.107Z,17.58
2018-09-24T02:35:00.773Z,17.51
2018-09-24T02:36:32.247Z,17.55
2018-09-24T02:38:03.816Z,17.48
2018-09-24T02:39:35.389Z,17.49
2018-09-24T02:41:07.263Z,17.44
2018-09-24T02:42:38.532Z,17.28
2018-09-24T02:44:10.105Z,17.36
2018-09-24T02:47:13.347Z,17.30
2018-09-24T02:48:44.820Z,17.26
2018-09-24T02:50:16.394Z,17.23
2018-09-24T02:51:47.962Z,17.34
2018-09-24T02:53:19.535Z,17.25
2018-09-24T02:54:51.412Z,17.26
2018-09-24T02:56:22.677Z,17.22
2018-09-24T02:57:54.250Z,17.19
2018-09-24T02:59:26.121Z,17.16
2018-09-24T03:00:57.393Z,17.19
2018-09-24T03:02:28.965Z,17.18
2018-09-24T03:04:00.537Z,17.07
2018-09-24T03:05:32.308Z,17.03
2018-09-24T03:07:03.680Z,17.07
2018-09-24T03:08:35.254Z,16.98
2018-09-24T03:10:06.824Z,16.98
2018-09-24T03:11:38.695Z,17.03
2018-09-24T03:13:09.965Z,16.98
2018-09-24T03:14:41.537Z,17.04
2018-09-24T03:16:13.109Z,17.04
2018-09-24T03:17:44.681Z,17.03
2018-09-24T03:19:16.252Z,17.00
2018-09-24T03:20:47.823Z,17.01
2018-09-24T03:22:19.396Z,17.01
2018-09-24T03:23:51.066Z,17.01
2018-09-24T03:25:22.538Z,17.01
2018-09-24T03:26:54.111Z,17.00
2018-09-24T03:28:25.680Z,16.89
2018-09-24T03:29:57.552Z,16.83
2018-09-24T03:31:28.832Z,16.76
2018-09-24T03:33:00.396Z,16.85
2018-09-24T03:34:31.967Z,16.86
2018-09-24T03:36:03.639Z,16.82
2018-09-24T03:37:35.110Z,16.71
2018-09-24T03:39:06.680Z,16.78
2018-09-24T03:40:38.252Z,16.78
2018-09-24T03:42:10.229Z,16.76
2018-09-24T03:43:41.395Z,16.71
2018-09-24T03:45:12.968Z,16.64
2018-09-24T03:46:44.537Z,16.67
2018-09-24T03:48:16.109Z,16.76
2018-09-24T03:49:47.680Z,16.61
2018-09-24T03:51:19.259Z,16.71
2018-09-24T03:54:22.393Z,16.68
2018-09-24T03:55:53.964Z,16.64
2018-09-24T03:57:25.535Z,16.70
2018-09-24T03:58:57.151Z,16.63
2018-09-24T04:00:29.079Z,16.66
2018-09-24T04:02:00.248Z,16.64
2018-09-24T04:03:31.820Z,16.53
2018-09-24T04:05:03.392Z,16.46
2018-09-24T04:06:34.962Z,16.60
2018-09-24T04:08:06.533Z,16.57
2018-09-24T04:09:38.139Z,16.58
2018-09-24T04:11:09.678Z,16.66
2018-09-24T04:12:41.253Z,16.63
2018-09-24T04:14:12.817Z,16.64
2018-09-24T04:15:44.389Z,16.58
2018-09-24T04:17:15.959Z,16.57
2018-09-24T04:18:47.631Z,16.56
2018-09-24T04:20:19.103Z,16.56
2018-09-24T04:21:50.675Z,16.58
2018-09-24T04:23:22.246Z,16.57
2018-09-24T04:24:53.917Z,16.48
2018-09-24T04:26:25.516Z,16.45
2018-09-24T04:27:56.957Z,16.48
2018-09-24T04:29:28.530Z,16.35
2018-09-24T04:31:00.449Z,16.45
2018-09-24T04:32:31.671Z,16.42
2018-09-24T04:34:03.242Z,16.39
2018-09-24T04:35:34.812Z,16.38
2018-09-24T04:37:06.489Z,16.43
2018-09-24T04:38:37.953Z,16.34
2018-09-24T04:40:09.524Z,16.34
2018-09-24T04:41:41.096Z,16.33
2018-09-24T04:43:12.967Z,16.33
2018-09-24T04:44:44.237Z,16.27
2018-09-24T04:46:15.808Z,16.30
2018-09-24T04:47:47.380Z,16.17
2018-09-24T04:49:18.989Z,16.20
2018-09-24T04:50:50.520Z,16.09
2018-09-24T04:52:22.093Z,16.04
2018-09-24T04:53:53.663Z,16.08
2018-09-24T04:55:25.435Z,16.08
2018-09-24T04:56:56.804Z,16.20
2018-09-24T04:58:28.428Z,16.07
2018-09-24T04:59:59.945Z,16.05
2018-09-24T05:01:31.517Z,16.11
2018-09-24T05:03:03.099Z,16.15
2018-09-24T05:04:34.659Z,16.17
2018-09-24T05:06:06.230Z,16.21
2018-09-24T05:07:37.800Z,16.30
2018-09-24T05:09:09.370Z,16.21
2018-09-24T05:10:40.941Z,16.17
2018-09-24T05:12:12.513Z,16.20
2018-09-24T05:13:44.483Z,16.15
2018-09-24T05:15:15.653Z,16.14
2018-09-24T05:16:47.224Z,16.07
2018-09-24T05:18:18.795Z,16.05
2018-09-24T05:19:50.365Z,15.97
2018-09-24T05:21:21.940Z,15.97
2018-09-24T05:22:53.508Z,15.96
2018-09-24T05:24:25.079Z,15.89
2018-09-24T05:25:56.649Z,15.89
2018-09-24T05:27:28.324Z,15.96
2018-09-24T05:28:59.789Z,15.94
2018-09-24T05:30:31.360Z,15.97
2018-09-24T05:32:03.031Z,15.93
2018-09-24T05:33:34.501Z,15.82
2018-09-24T05:35:06.072Z,15.69
2018-09-24T05:36:37.643Z,15.65
2018-09-24T05:38:09.213Z,15.74
2018-09-24T05:39:40.784Z,15.64
2018-09-24T05:41:12.416Z,15.68
2018-09-24T05:42:43.924Z,15.67
2018-09-24T05:44:15.797Z,15.78
2018-09-24T05:45:47.067Z,15.90
2018-09-24T05:47:18.636Z,15.83
2018-09-24T05:50:21.877Z,15.68
2018-09-24T05:51:53.348Z,15.69
2018-09-24T05:53:24.918Z,15.67
2018-09-24T05:54:56.490Z,15.72
2018-09-24T05:56:28.161Z,15.74
2018-09-24T05:57:59.630Z,15.60
2018-09-24T05:59:31.200Z,15.68
2018-09-24T06:01:02.771Z,15.62
2018-09-24T06:02:34.640Z,15.64
2018-09-24T06:04:05.916Z,15.56
2018-09-24T06:05:37.481Z,15.69
2018-09-24T06:07:09.051Z,15.68
2018-09-24T06:08:40.822Z,15.68
2018-09-24T06:10:12.196Z,15.67
2018-09-24T06:11:44.285Z,15.69
2018-09-24T06:13:15.332Z,15.54
2018-09-24T06:14:47.204Z,15.59
2018-09-24T06:16:18.473Z,15.65
2018-09-24T06:17:50.043Z,15.64
2018-09-24T06:19:21.615Z,15.59
2018-09-24T06:20:54.011Z,15.60
2018-09-24T06:22:24.754Z,15.59
2018-09-24T06:23:56.326Z,15.50
2018-09-24T06:25:27.894Z,15.62
2018-09-24T06:26:59.666Z,15.47
2018-09-24T06:28:31.122Z,15.46
2018-09-24T06:30:02.614Z,15.89
2018-09-24T06:31:34.175Z,16.25
2018-09-24T06:33:06.093Z,16.42
2018-09-24T06:34:37.316Z,16.38
2018-09-24T06:36:08.889Z,16.45
2018-09-24T06:37:40.461Z,16.17
2018-09-24T06:39:12.128Z,16.11
2018-09-24T06:40:43.599Z,15.96
2018-09-24T06:42:15.168Z,16.09
2018-09-24T06:43:46.742Z,16.12
2018-09-24T06:45:18.709Z,16.27
2018-09-24T06:46:50.384Z,16.02
2018-09-24T06:48:21.459Z,15.72
2018-09-24T06:49:53.020Z,15.51
2018-09-24T06:51:24.691Z,15.69
2018-09-24T06:52:56.363Z,15.74
2018-09-24T06:54:27.734Z,15.82
2018-09-24T06:55:59.301Z,15.71
2018-09-24T06:57:30.971Z,15.64
2018-09-24T06:59:02.446Z,15.50
2018-09-24T07:00:34.013Z,15.62
2018-09-24T07:02:05.584Z,15.50
2018-09-24T07:03:37.553Z,15.54
2018-09-24T07:05:08.723Z,15.46
2018-09-24T07:06:40.297Z,15.44
2018-09-24T07:08:11.863Z,15.49
2018-09-24T07:09:43.433Z,15.46
2018-09-24T07:11:15.066Z,15.47
2018-09-24T07:12:46.574Z,15.35
2018-09-24T07:14:18.147Z,15.32
2018-09-24T07:15:50.015Z,15.20
2018-09-24T07:17:21.284Z,15.19
2018-09-24T07:18:53.360Z,15.10
2018-09-24T07:20:24.425Z,15.19
2018-09-24T07:21:56.094Z,15.11
2018-09-24T07:23:27.564Z,15.20
2018-09-24T07:24:59.135Z,15.07
2018-09-24T07:26:30.705Z,14.99
2018-09-24T07:28:02.388Z,14.99
2018-09-24T07:29:33.848Z,14.94
2018-09-24T07:31:05.415Z,14.98
2018-09-24T07:32:36.985Z,14.94
2018-09-24T07:34:08.856Z,14.91
2018-09-24T07:35:40.429Z,14.86
2018-09-24T07:37:11.699Z,14.65
2018-09-24T07:38:43.264Z,14.70
2018-09-24T07:40:14.963Z,14.78
2018-09-24T07:41:46.405Z,14.77
2018-09-24T07:43:18.014Z,14.86
2018-09-24T07:44:49.546Z,14.88
2018-09-24T07:46:21.415Z,14.98
2018-09-24T07:47:52.685Z,15.01
2018-09-24T07:49:24.256Z,15.01
2018-09-24T07:50:55.825Z,14.95
2018-09-24T07:52:27.394Z,14.95
2018-09-24T07:53:58.965Z,14.86
2018-09-24T07:55:30.672Z,14.86
2018-09-24T07:57:02.103Z,14.92
2018-09-24T07:58:33.773Z,14.92
2018-09-24T08:00:05.244Z,14.94
2018-09-24T08:01:36.813Z,14.88
2018-09-24T08:03:08.595Z,14.91
2018-09-24T08:04:40.252Z,14.75
2018-09-24T08:06:11.521Z,14.80
2018-09-24T08:07:43.092Z,14.68
2018-09-24T08:09:14.663Z,14.65
2018-09-24T08:10:46.235Z,14.64
2018-09-24T08:12:17.800Z,14.65
2018-09-24T08:13:49.373Z,14.78
2018-09-24T08:15:20.941Z,14.78
2018-09-24T08:16:52.911Z,14.73
2018-09-24T08:18:24.087Z,14.83
2018-09-24T08:19:55.650Z,14.84
2018-09-24T08:21:27.219Z,14.95
2018-09-24T08:22:58.939Z,14.96
2018-09-24T08:24:30.362Z,15.02
2018-09-24T08:26:01.928Z,15.07
2018-09-24T08:27:33.501Z,15.07
2018-09-24T08:29:05.168Z,14.98
2018-09-24T08:30:36.637Z,15.02
2018-09-24T08:32:08.207Z,15.02
2018-09-24T08:33:39.777Z,15.16
2018-09-24T08:35:11.747Z,15.38
2018-09-24T08:36:42.916Z,15.41
2018-09-24T08:38:14.551Z,15.43
2018-09-24T08:39:46.563Z,15.41
2018-09-24T08:41:17.625Z,15.38
2018-09-24T08:42:49.199Z,15.27
2018-09-24T08:44:20.767Z,15.23
2018-09-24T08:45:52.336Z,15.10
2018-09-24T08:47:23.909Z,15.01
2018-09-24T08:48:55.679Z,15.07
2018-09-24T08:50:27.047Z,15.01
2018-09-24T08:51:58.614Z,14.99
2018-09-24T08:53:30.359Z,14.96
2018-09-24T08:55:01.755Z,15.07
2018-09-24T08:56:33.352Z,15.14
2018-09-24T08:58:04.894Z,15.51
2018-09-24T08:59:36.464Z,16.09
2018-09-24T09:01:08.032Z,16.28
2018-09-24T09:02:39.672Z,16.20
2018-09-24T09:04:11.483Z,16.08
2018-09-24T09:05:42.945Z,16.45
2018-09-24T09:08:45.882Z,17.43
2018-09-24T09:11:49.374Z,18.10
2018-09-24T09:14:52.468Z,18.44
2018-09-24T09:16:23.792Z,18.48
2018-09-24T09:17:56.130Z,18.66
2018-09-24T09:20:58.451Z,19.32
2018-09-24T09:22:30.021Z,19.50
2018-09-24T09:24:01.633Z,19.87
2018-09-24T09:25:33.165Z,20.06
2018-09-24T09:27:04.741Z,19.88
2018-09-24T09:28:36.309Z,20.16
2018-09-24T09:30:08.085Z,20.54
2018-09-24T09:31:39.456Z,20.88
2018-09-24T09:33:11.029Z,21.19
2018-09-24T09:36:14.177Z,21.12
2018-09-24T09:37:45.953Z,21.46
2018-09-24T09:39:17.324Z,21.77
2018-09-24T09:40:49.010Z,22.18
2018-09-24T09:42:20.488Z,22.40
2018-09-24T09:46:55.615Z,23.61
2018-09-24T09:48:27.374Z,23.88
2018-09-24T09:49:58.551Z,23.85
2018-09-24T09:51:30.227Z,23.19
2018-09-24T09:53:01.500Z,23.40
2018-09-24T09:54:33.079Z,23.25
2018-09-24T09:56:04.957Z,23.09
2018-09-24T09:59:08.102Z,23.15
2018-09-24T10:02:11.216Z,23.33
2018-09-24T10:05:14.120Z,23.47
2018-09-24T10:06:45.823Z,23.50
2018-09-24T10:08:17.383Z,23.55
2018-09-24T10:09:49.167Z,23.35
2018-09-24T10:11:20.876Z,23.51
2018-09-24T10:12:52.022Z,23.35
2018-09-24T10:14:23.991Z,23.00
2018-09-24T10:15:55.210Z,23.22
2018-09-24T10:17:27.041Z,23.47
2018-09-24T10:18:58.315Z,23.42
2018-09-24T10:20:30.045Z,23.57
2018-09-24T10:22:01.741Z,23.54
2018-09-24T10:25:04.673Z,23.66
2018-09-24T10:26:36.407Z,23.98
2018-09-24T10:29:39.428Z,24.22
2018-09-24T10:31:10.948Z,24.02
2018-09-24T10:32:42.550Z,23.94
2018-09-24T10:34:14.107Z,23.90
2018-09-24T10:35:45.684Z,23.65
2018-09-24T10:37:17.264Z,23.68
2018-09-24T10:38:48.894Z,23.85
2018-09-24T10:40:20.424Z,23.93
2018-09-24T10:43:23.584Z,24.91
2018-09-24T10:47:58.424Z,24.99
2018-09-24T10:49:30.106Z,25.42
2018-09-24T10:51:01.688Z,25.75
2018-09-24T10:52:33.201Z,25.94
2018-09-24T10:54:04.677Z,26.01
2018-09-24T10:55:36.550Z,25.58
2018-09-24T10:57:07.808Z,26.48
2018-09-24T10:58:39.387Z,26.82
2018-09-24T11:00:11.897Z,26.91
2018-09-24T11:03:14.134Z,26.02
2018-09-24T11:04:45.770Z,26.05
2018-09-24T11:06:17.396Z,26.13
2018-09-24T11:07:48.879Z,26.01
2018-09-24T11:09:20.773Z,25.69
2018-09-24T11:12:24.144Z,26.10
2018-09-24T11:13:55.205Z,26.13
2018-09-24T11:16:58.447Z,26.40
2018-09-24T11:18:29.977Z,26.70
2018-09-24T11:21:33.173Z,27.10
2018-09-24T11:23:04.736Z,27.79
2018-09-24T11:24:36.419Z,27.78
2018-09-24T11:26:08.168Z,27.63
2018-09-24T11:27:39.583Z,27.07
2018-09-24T11:29:11.340Z,26.48
2018-09-24T11:33:45.932Z,26.75
2018-09-24T11:35:17.637Z,27.00
2018-09-24T11:36:49.971Z,27.07
2018-09-24T11:38:21.332Z,27.09
2018-09-24T11:39:52.211Z,27.78
2018-09-24T11:41:24.509Z,27.93
2018-09-24T11:42:56.283Z,27.51
2018-09-24T11:44:27.538Z,27.13
2018-09-24T11:45:58.810Z,27.22
2018-09-24T11:47:30.566Z,26.45
2018-09-24T11:49:01.637Z,26.25
2018-09-24T11:50:33.191Z,27.17
2018-09-24T11:52:05.348Z,26.66
2018-09-24T11:53:36.989Z,26.36
2018-09-24T11:55:08.034Z,26.77
2018-09-24T11:58:11.265Z,27.24
2018-09-24T11:59:42.693Z,27.59
2018-09-24T12:01:14.594Z,27.39
2018-09-24T12:02:45.983Z,27.55
2018-09-24T12:04:17.766Z,26.87
2018-09-24T12:05:49.028Z,27.36
2018-09-24T12:07:21.179Z,27.63
2018-09-24T12:08:52.430Z,27.96
2018-09-24T12:10:23.869Z,28.00
2018-09-24T12:11:55.362Z,27.65
2018-09-24T12:13:26.986Z,27.63
2018-09-24T12:16:30.593Z,27.67
2018-09-24T12:18:02.062Z,28.00
2018-09-24T12:22:36.818Z,29.60
2018-09-24T12:24:08.116Z,29.41
2018-09-24T12:25:40.084Z,29.12
2018-09-24T12:27:11.475Z,29.05
2018-09-24T12:28:43.342Z,29.19
2018-09-24T12:30:15.454Z,29.39
2018-09-24T12:31:46.093Z,29.68
2018-09-24T12:34:49.263Z,29.09
2018-09-24T12:36:20.713Z,29.04
2018-09-24T12:37:52.311Z,29.39
2018-09-24T12:39:23.958Z,30.10
2018-09-24T12:40:55.685Z,30.24
2018-09-24T12:45:30.226Z,29.73
2018-09-24T12:47:01.828Z,29.68
2018-09-24T12:48:33.421Z,30.08
2018-09-24T12:50:04.984Z,29.76
2018-09-24T12:53:08.559Z,29.90
2018-09-24T12:57:42.913Z,30.31
2018-09-24T12:59:15.021Z,30.26
2018-09-24T13:00:46.809Z,30.70
2018-09-24T13:02:17.673Z,31.29
2018-09-24T13:03:49.259Z,31.20
2018-09-24T13:05:21.756Z,30.94
2018-09-24T13:08:24.140Z,30.58
2018-09-24T13:09:55.606Z,30.62
2018-09-24T13:12:59.101Z,30.55
2018-09-24T13:14:30.365Z,30.54
2018-09-24T13:16:01.979Z,31.47
2018-09-24T13:19:05.185Z,30.98
2018-09-24T13:20:36.714Z,31.32
2018-09-24T13:22:09.429Z,31.75
2018-09-24T13:23:40.412Z,32.04
2018-09-24T13:25:11.984Z,31.72
2018-09-24T13:26:43.064Z,31.19
2018-09-24T13:28:14.651Z,31.62
2018-09-24T13:29:46.767Z,31.66
2018-09-24T13:31:17.933Z,31.56
2018-09-24T13:32:49.518Z,31.80
2018-09-24T13:34:21.002Z,31.57
2018-09-24T13:35:52.590Z,32.11
2018-09-24T13:37:24.182Z,32.21
2018-09-24T13:38:55.766Z,31.88
2018-09-24T13:40:27.355Z,32.66
2018-09-24T13:41:59.246Z,32.55
2018-09-24T13:54:47.388Z,32.50
2018-09-24T13:56:19.205Z,32.44
2018-09-24T13:57:50.264Z,32.55
2018-09-24T13:59:21.850Z,32.22
2018-09-24T14:00:53.439Z,32.60
2018-09-24T14:02:25.028Z,33.21
2018-09-24T14:03:56.607Z,33.07
2018-09-24T14:05:28.196Z,33.39
2018-09-24T14:06:59.811Z,33.29
2018-09-24T14:08:31.994Z,33.06
2018-09-24T14:10:02.965Z,33.16
2018-09-24T14:11:34.557Z,32.15
2018-09-24T14:13:06.188Z,33.26
2018-09-24T14:14:37.733Z,33.90
2018-09-24T14:16:09.524Z,33.53
2018-09-24T14:17:40.911Z,33.75
2018-09-24T14:19:12.707Z,33.38
2018-09-24T14:20:44.093Z,33.71
2018-09-24T14:22:15.682Z,33.41
2018-09-24T14:23:47.676Z,33.61
2018-09-24T14:25:19.078Z,33.95
2018-09-24T14:26:50.454Z,32.96
2018-09-24T14:28:22.246Z,31.85
2018-09-24T14:29:53.647Z,32.48
2018-09-24T14:31:25.225Z,33.07
2018-09-24T14:32:57.055Z,33.78
2018-09-24T14:34:28.834Z,33.95
2018-09-24T14:36:00.582Z,33.68
2018-09-24T14:37:31.721Z,33.50
2018-09-24T14:39:03.756Z,33.53
2018-09-24T14:40:35.009Z,34.16
2018-09-24T14:42:06.595Z,33.79
2018-09-24T14:43:38.603Z,34.27
2018-09-24T14:45:09.587Z,33.90
2018-09-24T14:46:41.256Z,33.72
2018-09-24T14:48:12.926Z,32.81
2018-09-24T14:49:44.346Z,33.56
2018-09-24T14:51:16.407Z,34.08
2018-09-24T14:52:47.561Z,34.02
2018-09-24T14:55:50.716Z,35.21
2018-09-24T14:57:22.999Z,34.99
2018-09-24T14:58:53.917Z,34.87
2018-09-24T15:00:25.857Z,35.03
2018-09-24T15:01:57.405Z,35.09
2018-09-24T15:03:29.053Z,35.15
2018-09-24T15:05:00.349Z,35.07
2018-09-24T15:06:32.860Z,35.53
2018-09-24T15:08:03.465Z,34.88
2018-09-24T15:09:35.488Z,34.99
2018-09-24T15:11:07.125Z,34.10
2018-09-24T15:12:38.430Z,34.65
2018-09-24T15:14:10.096Z,34.37
2018-09-24T15:15:42.640Z,35.00
2018-09-24T15:17:13.452Z,34.99
2018-09-24T15:18:44.827Z,35.56
2018-09-24T15:20:16.613Z,35.77
2018-09-24T15:21:47.880Z,35.85
2018-09-24T15:23:19.446Z,35.93
2018-09-24T15:24:51.090Z,35.62
2018-09-24T15:26:22.755Z,35.81
2018-09-24T15:27:54.128Z,35.59
2018-09-24T15:29:26.037Z,34.00
2018-09-24T15:30:57.338Z,34.09
2018-09-24T15:34:00.606Z,35.71
2018-09-24T15:35:32.090Z,35.96
2018-09-24T15:38:35.276Z,36.22
2018-09-24T15:40:07.184Z,33.95
2018-09-24T15:43:10.057Z,34.08
2018-09-24T15:44:41.651Z,35.14
2018-09-24T15:46:13.244Z,34.56
2018-09-24T15:49:16.653Z,35.22
2018-09-24T15:52:19.820Z,36.39
2018-09-24T15:55:23.109Z,36.13
2018-09-24T15:56:54.400Z,35.40
2018-09-24T15:59:57.681Z,35.21
2018-09-24T16:01:29.566Z,35.50
2018-09-24T16:04:32.366Z,35.44
2018-09-24T16:06:04.474Z,35.59
2018-09-24T16:07:36.135Z,35.37
2018-09-24T16:10:39.254Z,34.34
2018-09-24T16:12:10.339Z,34.85
2018-09-24T16:13:42.086Z,35.06
2018-09-24T16:16:45.103Z,34.15
2018-09-24T16:19:48.590Z,33.95
2018-09-24T16:21:19.892Z,34.19
2018-09-24T16:22:51.824Z,34.13
2018-09-24T16:24:23.927Z,34.58
2018-09-24T16:25:54.655Z,34.78
2018-09-24T16:27:26.246Z,34.27
2018-09-24T16:28:57.837Z,33.81
2018-09-24T16:30:29.429Z,33.93
2018-09-24T16:32:01.224Z,33.82
2018-09-24T16:33:32.942Z,33.69
2018-09-24T16:35:04.608Z,34.00
2018-09-24T16:36:36.301Z,33.42
2018-09-24T16:38:07.488Z,33.00
2018-09-24T16:39:40.019Z,33.19
2018-09-24T16:41:10.565Z,33.45
2018-09-24T16:42:42.788Z,33.73
2018-09-24T16:44:14.049Z,34.13
2018-09-24T16:45:46.346Z,33.66
2018-09-24T16:47:17.024Z,33.42
2018-09-24T16:50:20.700Z,33.00
2018-09-24T16:51:51.900Z,33.07
2018-09-24T16:53:23.487Z,32.01
2018-09-24T16:54:55.206Z,32.04
2018-09-24T16:56:26.567Z,32.14
2018-09-24T16:57:58.327Z,32.18
2018-09-24T17:02:34.280Z,31.85
2018-09-24T17:04:05.320Z,31.65
2018-09-24T17:07:07.587Z,31.36
2018-09-24T17:08:39.378Z,30.62
2018-09-24T17:11:42.615Z,29.95
2018-09-24T17:13:14.142Z,29.24
2018-09-24T17:14:46.148Z,29.79
2018-09-24T17:16:17.115Z,30.00
2018-09-24T17:19:20.317Z,30.45
2018-09-24T17:20:52.255Z,30.73
2018-09-24T17:22:23.581Z,30.38
2018-09-24T17:23:55.118Z,28.90
2018-09-24T17:25:26.775Z,28.88
2018-09-24T17:26:58.467Z,28.19
2018-09-24T17:28:30.253Z,27.25
2018-09-24T17:30:01.403Z,28.33
2018-09-24T17:31:33.575Z,28.56
2018-09-24T17:33:04.689Z,28.92
2018-09-24T17:34:36.308Z,28.74
2018-09-24T17:36:07.788Z,28.95
2018-09-24T17:37:40.081Z,28.55
2018-09-24T17:39:10.959Z,28.88
2018-09-24T17:42:14.226Z,27.81
2018-09-24T17:43:45.840Z,28.74
2018-09-24T17:45:17.635Z,28.52
2018-09-24T17:46:49.123Z,28.17
2018-09-24T17:48:20.439Z,28.64
2018-09-24T17:49:52.136Z,28.92
2018-09-24T17:51:23.803Z,29.58
2018-09-24T17:52:55.341Z,28.96
2018-09-24T17:54:26.853Z,28.95
2018-09-24T17:55:58.972Z,29.34
2018-09-24T17:57:30.202Z,28.71
2018-09-24T17:59:01.538Z,29.08
2018-09-24T18:00:33.170Z,27.97
2018-09-24T18:02:05.226Z,27.87
2018-09-24T18:03:36.851Z,28.27
2018-09-24T18:05:10.054Z,27.65
2018-09-24T18:06:41.963Z,28.29
2018-09-24T18:08:12.400Z,28.46
2018-09-24T18:09:42.855Z,28.46
2018-09-24T18:12:46.587Z,28.37
2018-09-24T18:14:17.410Z,28.25
2018-09-24T18:15:49.119Z,27.00
2018-09-24T18:17:20.984Z,26.77
2018-09-24T18:18:52.155Z,26.33
2018-09-24T18:20:24.472Z,26.39
2018-09-24T18:21:55.696Z,25.94
2018-09-24T18:23:27.302Z,25.95
2018-09-24T18:24:58.679Z,25.82
2018-09-24T18:26:30.265Z,25.21
2018-09-24T18:28:01.841Z,25.20
2018-09-24T18:29:33.295Z,24.84
2018-09-24T18:32:36.516Z,24.91
2018-09-24T18:34:08.011Z,25.23
2018-09-24T18:37:11.600Z,25.77
2018-09-24T18:40:14.634Z,25.83
2018-09-24T18:41:45.960Z,25.58
2018-09-24T18:43:17.612Z,25.46
2018-09-24T18:44:49.348Z,25.65
2018-09-24T18:46:21.664Z,25.08
2018-09-24T18:47:52.243Z,25.13
2018-09-24T18:49:23.864Z,25.46
2018-09-24T18:50:55.443Z,25.91
2018-09-24T18:52:27.303Z,26.09
2018-09-24T18:53:58.664Z,26.36
2018-09-24T18:55:30.374Z,26.13
2018-09-24T18:57:02.101Z,26.13
2018-09-24T18:58:33.466Z,27.07
2018-09-24T19:00:04.879Z,27.66
2018-09-24T19:01:36.584Z,27.25
2018-09-24T19:03:08.101Z,26.95
2018-09-24T19:04:39.726Z,26.75
2018-09-24T19:09:14.676Z,26.29
2018-09-24T19:10:46.464Z,26.21
2018-09-24T19:12:17.742Z,26.58
2018-09-24T19:13:49.319Z,27.25
2018-09-24T19:15:20.699Z,27.02
2018-09-24T19:16:52.280Z,27.04
2018-09-24T19:18:23.921Z,26.80
2018-09-24T19:19:55.646Z,27.31
2018-09-24T19:21:27.027Z,26.70
2018-09-24T19:22:59.733Z,26.67
2018-09-24T19:26:01.772Z,27.24
2018-09-24T19:27:33.353Z,27.85
2018-09-24T19:29:04.934Z,27.44
2018-09-24T19:30:36.516Z,27.50
2018-09-24T19:32:08.095Z,27.70
2018-09-24T19:33:40.427Z,26.88
2018-09-24T19:36:42.883Z,26.26
2018-09-24T19:38:14.424Z,26.40
2018-09-24T19:39:46.003Z,27.10
2018-09-24T19:41:17.785Z,26.88
2018-09-24T19:42:49.268Z,27.27
2018-09-24T19:44:20.970Z,27.59
2018-09-24T19:45:52.633Z,27.63
2018-09-24T19:47:24.649Z,27.81
2018-09-24T19:48:56.095Z,27.40
2018-09-24T19:50:27.069Z,26.09
2018-09-24T19:51:59.173Z,26.10
2018-09-24T19:53:30.232Z,26.44
2018-09-24T19:55:01.852Z,26.76
2018-09-24T19:56:33.393Z,26.70
2018-09-24T19:58:05.175Z,26.52
2018-09-24T19:59:36.560Z,25.85
2018-09-24T20:01:08.784Z,26.15
2018-09-24T20:02:39.715Z,26.47
2018-09-24T20:04:11.600Z,26.25
2018-09-24T20:05:42.876Z,26.55
2018-09-24T20:11:49.500Z,25.69
2018-09-24T20:13:20.796Z,25.94
2018-09-24T20:14:52.934Z,25.82
2018-09-24T20:16:24.053Z,25.88
2018-09-24T20:19:27.962Z,24.83
2018-09-24T20:20:58.680Z,24.61
2018-09-24T20:22:30.281Z,23.88
2018-09-24T20:24:01.841Z,24.15
2018-09-24T20:25:33.662Z,24.24
2018-09-24T20:27:05.124Z,24.42
2018-09-24T20:30:08.166Z,24.98
2018-09-24T20:31:40.233Z,24.95
2018-09-24T20:33:11.298Z,24.77
2018-09-24T20:34:42.947Z,24.76
2018-09-24T20:36:14.763Z,24.30
2018-09-24T20:37:46.180Z,23.90
2018-09-24T20:39:17.645Z,23.85
2018-09-24T20:40:49.296Z,22.86
2018-09-24T20:42:20.796Z,22.91
2018-09-24T20:43:52.436Z,22.67
2018-09-24T20:46:55.511Z,22.14
2018-09-24T20:48:27.087Z,21.88
2018-09-24T20:49:58.778Z,21.83
2018-09-24T20:51:30.267Z,21.77
2018-09-24T20:54:33.753Z,21.80
2018-09-24T20:56:05.631Z,21.59
2018-09-24T20:57:36.887Z,21.53
2018-09-24T20:59:08.415Z,21.35
2018-09-24T21:00:39.736Z,21.14
2018-09-24T21:02:11.580Z,21.10
2018-09-24T21:03:42.853Z,21.10
2018-09-24T21:05:14.416Z,21.16
2018-09-24T21:06:46.115Z,20.89
2018-09-24T21:08:17.591Z,20.87
2018-09-24T21:09:49.423Z,20.73
2018-09-24T21:11:20.713Z,20.74
2018-09-24T21:12:52.503Z,20.59
2018-09-24T21:14:23.979Z,20.54
2018-09-24T21:15:55.451Z,20.58
2018-09-24T21:17:27.014Z,20.54
2018-09-24T21:18:58.590Z,20.43
2018-09-24T21:20:30.165Z,20.32
2018-09-24T21:22:01.734Z,20.16
2018-09-24T21:23:33.375Z,20.18
2018-09-24T21:25:04.882Z,20.20
2018-09-24T21:26:36.758Z,20.16
2018-09-24T21:28:08.064Z,20.13
2018-09-24T21:29:39.607Z,20.14
2018-09-24T21:32:43.011Z,20.03
2018-09-24T21:34:14.344Z,20.02
2018-09-24T21:37:17.475Z,19.88
2018-09-24T21:38:49.049Z,19.94
2018-09-24T21:40:20.626Z,19.81
2018-09-24T21:43:23.771Z,19.74
2018-09-24T21:44:55.374Z,19.76
2018-09-24T21:46:27.076Z,19.55
2018-09-24T21:47:58.488Z,19.56
2018-09-24T21:49:30.061Z,19.56